sensor_id;sensor_type;location;lat;lon;timestamp;temperature;humidity
62339;DHT22;48368;53.406;6.214;2022-10-31T00:02:00;12.30;99.90
62339;DHT22;48368;53.406;6.214;2022-10-31T00:08:05;12.30;99.90
62339;DHT22;48368;53.406;6.214;2022-10-31T00:14:22;12.30;99.90
62339;DHT22;48368;53.406;6.214;2022-10-31T00:16:47;12.30;99.90
62339;DHT22;48368;53.406;6.214;2022-10-31T00:19:13;12.30;99.90
62339;DHT22;48368;53.406;6.214;2022-10-31T00:21:39;12.30;99.90
62339;DHT22;48368;53.406;6.214;2022-10-31T00:24:05;12.30;99.90
62339;DHT22;48368;53.406;6.214;2022-10-31T00:26:31;12.30;99.90
62339;DHT22;48368;53.406;6.214;2022-10-31T00:28:57;12.30;99.90
62339;DHT22;48368;53.406;6.214;2022-10-31T00:31:23;12.30;99.90
62339;DHT22;48368;53.406;6.214;2022-10-31T00:33:49;12.30;99.90
62339;DHT22;48368;53.406;6.214;2022-10-31T00:36:17;12.30;99.90
62339;DHT22;48368;53.406;6.214;2022-10-31T00:38:43;12.20;99.90
62339;DHT22;48368;53.406;6.214;2022-10-31T00:41:10;12.20;99.90
62339;DHT22;48368;53.406;6.214;2022-10-31T00:43:35;12.30;99.90
62339;DHT22;48368;53.406;6.214;2022-10-31T00:46:01;12.20;99.90
62339;DHT22;48368;53.406;6.214;2022-10-31T00:48:27;12.20;99.90
62339;DHT22;48368;53.406;6.214;2022-10-31T00:50:53;12.20;99.90
62339;DHT22;48368;53.406;6.214;2022-10-31T00:53:18;12.20;99.90
62339;DHT22;48368;53.406;6.214;2022-10-31T00:55:44;12.20;99.90
62339;DHT22;48368;53.406;6.214;2022-10-31T00:58:10;12.20;99.90
62339;DHT22;48368;53.406;6.214;2022-10-31T01:00:35;12.20;99.90
62339;DHT22;48368;53.406;6.214;2022-10-31T01:03:01;12.20;99.90
62339;DHT22;48368;53.406;6.214;2022-10-31T01:05:27;12.10;99.90
62339;DHT22;48368;53.406;6.214;2022-10-31T01:07:52;12.10;99.90
62339;DHT22;48368;53.406;6.214;2022-10-31T01:10:18;12.20;99.90
62339;DHT22;48368;53.406;6.214;2022-10-31T01:12:46;12.10;99.90
62339;DHT22;48368;53.406;6.214;2022-10-31T01:15:14;12.10;99.90
62339;DHT22;48368;53.406;6.214;2022-10-31T01:17:40;12.10;99.90
62339;DHT22;48368;53.406;6.214;2022-10-31T01:20:07;12.10;99.90
62339;DHT22;48368;53.406;6.214;2022-10-31T01:22:33;12.10;99.90
62339;DHT22;48368;53.406;6.214;2022-10-31T01:24:59;12.10;99.90
62339;DHT22;48368;53.406;6.214;2022-10-31T01:27:25;12.10;99.90
62339;DHT22;48368;53.406;6.214;2022-10-31T01:29:50;12.00;99.90
62339;DHT22;48368;53.406;6.214;2022-10-31T01:32:16;12.00;99.90
62339;DHT22;48368;53.406;6.214;2022-10-31T01:34:42;12.10;99.90
62339;DHT22;48368;53.406;6.214;2022-10-31T01:37:07;12.10;99.90
62339;DHT22;48368;53.406;6.214;2022-10-31T01:39:33;12.10;99.90
62339;DHT22;48368;53.406;6.214;2022-10-31T01:41:58;12.00;99.90
62339;DHT22;48368;53.406;6.214;2022-10-31T01:46:56;12.00;99.90
62339;DHT22;48368;53.406;6.214;2022-10-31T01:52:10;12.00;99.90
62339;DHT22;48368;53.406;6.214;2022-10-31T01:54:41;12.00;99.90
62339;DHT22;48368;53.406;6.214;2022-10-31T01:57:10;12.00;99.90
62339;DHT22;48368;53.406;6.214;2022-10-31T01:59:40;12.00;99.90
62339;DHT22;48368;53.406;6.214;2022-10-31T02:02:07;12.00;99.90
62339;DHT22;48368;53.406;6.214;2022-10-31T02:04:34;11.90;99.90
62339;DHT22;48368;53.406;6.214;2022-10-31T02:07:07;11.90;99.90
62339;DHT22;48368;53.406;6.214;2022-10-31T02:09:35;11.90;99.90
62339;DHT22;48368;53.406;6.214;2022-10-31T02:12:02;11.90;99.90
62339;DHT22;48368;53.406;6.214;2022-10-31T02:14:30;11.90;99.90
62339;DHT22;48368;53.406;6.214;2022-10-31T02:16:56;11.90;99.90
62339;DHT22;48368;53.406;6.214;2022-10-31T02:22:45;11.80;99.90
62339;DHT22;48368;53.406;6.214;2022-10-31T02:28:01;11.80;99.90
62339;DHT22;48368;53.406;6.214;2022-10-31T02:33:22;11.80;99.90
62339;DHT22;48368;53.406;6.214;2022-10-31T02:38:56;11.70;99.90
62339;DHT22;48368;53.406;6.214;2022-10-31T02:41:32;11.70;99.90
62339;DHT22;48368;53.406;6.214;2022-10-31T02:44:22;11.70;99.90
62339;DHT22;48368;53.406;6.214;2022-10-31T02:47:26;11.70;99.90
62339;DHT22;48368;53.406;6.214;2022-10-31T02:49:57;11.70;99.90
62339;DHT22;48368;53.406;6.214;2022-10-31T02:52:27;11.60;99.90
62339;DHT22;48368;53.406;6.214;2022-10-31T02:54:53;11.60;99.90
62339;DHT22;48368;53.406;6.214;2022-10-31T02:57:24;11.60;99.90
62339;DHT22;48368;53.406;6.214;2022-10-31T02:59:54;11.60;99.90
62339;DHT22;48368;53.406;6.214;2022-10-31T03:02:50;11.60;99.90
62339;DHT22;48368;53.406;6.214;2022-10-31T03:10:57;11.50;99.90
62339;DHT22;48368;53.406;6.214;2022-10-31T03:18:43;11.50;99.90
62339;DHT22;48368;53.406;6.214;2022-10-31T03:21:14;11.60;99.90
62339;DHT22;48368;53.406;6.214;2022-10-31T03:23:44;11.50;99.90
62339;DHT22;48368;53.406;6.214;2022-10-31T03:26:11;11.50;99.90
62339;DHT22;48368;53.406;6.214;2022-10-31T03:28:55;11.50;99.90
62339;DHT22;48368;53.406;6.214;2022-10-31T03:31:26;11.50;99.90
62339;DHT22;48368;53.406;6.214;2022-10-31T03:33:56;11.50;99.90
62339;DHT22;48368;53.406;6.214;2022-10-31T03:36:24;11.40;99.90
62339;DHT22;48368;53.406;6.214;2022-10-31T03:38:51;11.40;99.90
62339;DHT22;48368;53.406;6.214;2022-10-31T03:41:24;11.40;99.90
62339;DHT22;48368;53.406;6.214;2022-10-31T03:43:55;11.50;99.90
62339;DHT22;48368;53.406;6.214;2022-10-31T03:46:23;11.50;99.90
62339;DHT22;48368;53.406;6.214;2022-10-31T03:48:49;11.50;99.90
62339;DHT22;48368;53.406;6.214;2022-10-31T03:51:22;11.50;99.90
62339;DHT22;48368;53.406;6.214;2022-10-31T03:56:51;11.40;99.90
62339;DHT22;48368;53.406;6.214;2022-10-31T03:59:58;11.40;99.90
62339;DHT22;48368;53.406;6.214;2022-10-31T04:02:20;11.40;99.90
62339;DHT22;48368;53.406;6.214;2022-10-31T04:04:47;11.40;99.90
62339;DHT22;48368;53.406;6.214;2022-10-31T04:07:15;11.30;99.90
62339;DHT22;48368;53.406;6.214;2022-10-31T04:09:43;11.30;99.90
62339;DHT22;48368;53.406;6.214;2022-10-31T04:12:12;11.30;99.90
62339;DHT22;48368;53.406;6.214;2022-10-31T04:14:42;11.30;99.90
62339;DHT22;48368;53.406;6.214;2022-10-31T04:17:12;11.30;99.90
62339;DHT22;48368;53.406;6.214;2022-10-31T04:19:39;11.30;99.90
62339;DHT22;48368;53.406;6.214;2022-10-31T04:22:04;11.30;99.90
62339;DHT22;48368;53.406;6.214;2022-10-31T04:24:30;11.30;99.90
62339;DHT22;48368;53.406;6.214;2022-10-31T04:26:56;11.20;99.90
62339;DHT22;48368;53.406;6.214;2022-10-31T04:29:21;11.20;99.90
62339;DHT22;48368;53.406;6.214;2022-10-31T04:31:47;11.20;99.90
62339;DHT22;48368;53.406;6.214;2022-10-31T04:34:12;11.20;99.90
62339;DHT22;48368;53.406;6.214;2022-10-31T04:36:38;11.20;99.90
62339;DHT22;48368;53.406;6.214;2022-10-31T04:39:04;11.20;99.90
62339;DHT22;48368;53.406;6.214;2022-10-31T04:41:29;11.20;99.90
62339;DHT22;48368;53.406;6.214;2022-10-31T04:43:55;11.20;99.90
62339;DHT22;48368;53.406;6.214;2022-10-31T04:46:20;11.20;99.90
62339;DHT22;48368;53.406;6.214;2022-10-31T04:48:46;11.20;99.90
62339;DHT22;48368;53.406;6.214;2022-10-31T04:51:12;11.20;99.90
62339;DHT22;48368;53.406;6.214;2022-10-31T04:53:37;11.20;99.90
62339;DHT22;48368;53.406;6.214;2022-10-31T04:56:03;11.20;99.90
62339;DHT22;48368;53.406;6.214;2022-10-31T04:58:29;11.10;99.90
62339;DHT22;48368;53.406;6.214;2022-10-31T05:00:55;11.10;99.90
62339;DHT22;48368;53.406;6.214;2022-10-31T05:03:21;11.10;99.90
62339;DHT22;48368;53.406;6.214;2022-10-31T05:05:47;11.10;99.90
62339;DHT22;48368;53.406;6.214;2022-10-31T05:08:13;11.10;99.90
62339;DHT22;48368;53.406;6.214;2022-10-31T05:10:38;11.10;99.90
62339;DHT22;48368;53.406;6.214;2022-10-31T05:13:04;11.10;99.90
62339;DHT22;48368;53.406;6.214;2022-10-31T05:15:30;11.10;99.90
62339;DHT22;48368;53.406;6.214;2022-10-31T05:17:56;11.00;99.90
62339;DHT22;48368;53.406;6.214;2022-10-31T05:20:26;10.90;99.90
62339;DHT22;48368;53.406;6.214;2022-10-31T05:22:54;10.90;99.90
62339;DHT22;48368;53.406;6.214;2022-10-31T05:25:22;10.90;99.90
62339;DHT22;48368;53.406;6.214;2022-10-31T05:27:49;10.90;99.90
62339;DHT22;48368;53.406;6.214;2022-10-31T05:30:18;10.80;99.90
62339;DHT22;48368;53.406;6.214;2022-10-31T05:32:46;10.80;99.90
62339;DHT22;48368;53.406;6.214;2022-10-31T05:35:15;10.80;99.90
62339;DHT22;48368;53.406;6.214;2022-10-31T05:37:41;10.80;99.90
62339;DHT22;48368;53.406;6.214;2022-10-31T05:40:09;10.80;99.90
62339;DHT22;48368;53.406;6.214;2022-10-31T05:42:35;10.80;99.90
62339;DHT22;48368;53.406;6.214;2022-10-31T05:45:01;10.80;99.90
62339;DHT22;48368;53.406;6.214;2022-10-31T05:47:27;10.70;99.90
62339;DHT22;48368;53.406;6.214;2022-10-31T05:49:52;10.70;99.90
62339;DHT22;48368;53.406;6.214;2022-10-31T05:52:18;10.80;99.90
62339;DHT22;48368;53.406;6.214;2022-10-31T05:54:44;10.70;99.90
62339;DHT22;48368;53.406;6.214;2022-10-31T05:57:10;10.70;99.90
62339;DHT22;48368;53.406;6.214;2022-10-31T05:59:35;10.70;99.90
62339;DHT22;48368;53.406;6.214;2022-10-31T06:02:01;10.80;99.90
62339;DHT22;48368;53.406;6.214;2022-10-31T06:04:26;10.80;99.90
62339;DHT22;48368;53.406;6.214;2022-10-31T06:06:52;10.80;99.90
62339;DHT22;48368;53.406;6.214;2022-10-31T06:09:17;10.80;99.90
62339;DHT22;48368;53.406;6.214;2022-10-31T06:11:43;10.80;99.90
62339;DHT22;48368;53.406;6.214;2022-10-31T06:14:09;10.70;99.90
62339;DHT22;48368;53.406;6.214;2022-10-31T06:16:34;10.80;99.90
62339;DHT22;48368;53.406;6.214;2022-10-31T06:19:00;10.80;99.90
62339;DHT22;48368;53.406;6.214;2022-10-31T06:21:26;10.70;99.90
62339;DHT22;48368;53.406;6.214;2022-10-31T06:23:51;10.70;99.90
62339;DHT22;48368;53.406;6.214;2022-10-31T06:26:17;10.70;99.90
62339;DHT22;48368;53.406;6.214;2022-10-31T06:28:43;10.60;99.90
62339;DHT22;48368;53.406;6.214;2022-10-31T06:31:08;10.60;99.90
62339;DHT22;48368;53.406;6.214;2022-10-31T06:33:34;10.50;99.90
62339;DHT22;48368;53.406;6.214;2022-10-31T06:36:00;10.50;99.90
62339;DHT22;48368;53.406;6.214;2022-10-31T06:38:26;10.40;99.90
62339;DHT22;48368;53.406;6.214;2022-10-31T06:40:53;10.30;99.90
62339;DHT22;48368;53.406;6.214;2022-10-31T06:43:19;10.40;99.90
62339;DHT22;48368;53.406;6.214;2022-10-31T06:45:45;10.30;99.90
62339;DHT22;48368;53.406;6.214;2022-10-31T06:48:10;10.30;99.90
62339;DHT22;48368;53.406;6.214;2022-10-31T06:50:36;10.20;99.90
62339;DHT22;48368;53.406;6.214;2022-10-31T06:53:01;10.20;99.90
62339;DHT22;48368;53.406;6.214;2022-10-31T06:55:27;10.20;99.90
62339;DHT22;48368;53.406;6.214;2022-10-31T06:57:55;10.20;99.90
62339;DHT22;48368;53.406;6.214;2022-10-31T07:00:21;10.20;99.90
62339;DHT22;48368;53.406;6.214;2022-10-31T07:03:05;10.30;99.90
62339;DHT22;48368;53.406;6.214;2022-10-31T07:05:31;10.30;99.90
62339;DHT22;48368;53.406;6.214;2022-10-31T07:08:02;10.30;99.90
62339;DHT22;48368;53.406;6.214;2022-10-31T07:10:30;10.20;99.90
62339;DHT22;48368;53.406;6.214;2022-10-31T07:13:01;10.30;99.90
62339;DHT22;48368;53.406;6.214;2022-10-31T07:15:28;10.30;99.90
62339;DHT22;48368;53.406;6.214;2022-10-31T07:17:59;10.30;99.90
62339;DHT22;48368;53.406;6.214;2022-10-31T07:20:25;10.30;99.90
62339;DHT22;48368;53.406;6.214;2022-10-31T07:22:51;10.40;99.90
62339;DHT22;48368;53.406;6.214;2022-10-31T07:25:16;10.30;99.90
62339;DHT22;48368;53.406;6.214;2022-10-31T07:27:42;10.40;99.90
62339;DHT22;48368;53.406;6.214;2022-10-31T07:30:10;10.50;99.90
62339;DHT22;48368;53.406;6.214;2022-10-31T07:32:39;10.50;99.90
62339;DHT22;48368;53.406;6.214;2022-10-31T07:35:07;10.50;99.90
62339;DHT22;48368;53.406;6.214;2022-10-31T07:37:33;10.50;99.90
62339;DHT22;48368;53.406;6.214;2022-10-31T07:39:58;10.60;99.90
62339;DHT22;48368;53.406;6.214;2022-10-31T07:42:24;10.60;99.90
62339;DHT22;48368;53.406;6.214;2022-10-31T07:44:50;10.60;99.90
62339;DHT22;48368;53.406;6.214;2022-10-31T07:47:15;10.70;99.90
62339;DHT22;48368;53.406;6.214;2022-10-31T07:49:41;10.70;99.90
62339;DHT22;48368;53.406;6.214;2022-10-31T07:52:06;10.70;99.90
62339;DHT22;48368;53.406;6.214;2022-10-31T07:54:32;10.70;99.90
62339;DHT22;48368;53.406;6.214;2022-10-31T07:56:57;10.70;99.90
62339;DHT22;48368;53.406;6.214;2022-10-31T07:59:23;10.80;99.90
62339;DHT22;48368;53.406;6.214;2022-10-31T08:01:49;10.80;99.90
62339;DHT22;48368;53.406;6.214;2022-10-31T08:04:14;10.90;99.90
62339;DHT22;48368;53.406;6.214;2022-10-31T08:06:40;10.90;99.90
62339;DHT22;48368;53.406;6.214;2022-10-31T08:09:05;10.90;99.90
62339;DHT22;48368;53.406;6.214;2022-10-31T08:11:31;10.90;99.90
62339;DHT22;48368;53.406;6.214;2022-10-31T08:13:57;10.90;99.90
62339;DHT22;48368;53.406;6.214;2022-10-31T08:16:22;11.00;99.90
62339;DHT22;48368;53.406;6.214;2022-10-31T08:18:48;11.10;99.90
62339;DHT22;48368;53.406;6.214;2022-10-31T08:21:13;11.10;99.90
62339;DHT22;48368;53.406;6.214;2022-10-31T08:23:39;11.20;99.90
62339;DHT22;48368;53.406;6.214;2022-10-31T08:26:04;11.30;99.90
62339;DHT22;48368;53.406;6.214;2022-10-31T08:28:31;11.40;99.90
62339;DHT22;48368;53.406;6.214;2022-10-31T08:30:57;11.50;99.90
62339;DHT22;48368;53.406;6.214;2022-10-31T08:33:23;11.50;99.90
62339;DHT22;48368;53.406;6.214;2022-10-31T08:35:49;11.60;99.90
62339;DHT22;48368;53.406;6.214;2022-10-31T08:38:15;11.60;99.90
62339;DHT22;48368;53.406;6.214;2022-10-31T08:40:41;11.70;99.90
62339;DHT22;48368;53.406;6.214;2022-10-31T08:43:14;11.70;99.90
62339;DHT22;48368;53.406;6.214;2022-10-31T08:45:40;11.90;99.90
62339;DHT22;48368;53.406;6.214;2022-10-31T08:48:10;11.90;99.90
62339;DHT22;48368;53.406;6.214;2022-10-31T08:50:36;11.90;99.90
62339;DHT22;48368;53.406;6.214;2022-10-31T08:53:11;12.10;99.90
62339;DHT22;48368;53.406;6.214;2022-10-31T08:55:38;12.10;99.90
62339;DHT22;48368;53.406;6.214;2022-10-31T08:58:06;12.20;99.90
62339;DHT22;48368;53.406;6.214;2022-10-31T09:00:34;12.20;99.90
62339;DHT22;48368;53.406;6.214;2022-10-31T09:03:02;12.30;99.90
62339;DHT22;48368;53.406;6.214;2022-10-31T09:05:29;12.40;99.90
62339;DHT22;48368;53.406;6.214;2022-10-31T09:07:56;12.40;99.90
62339;DHT22;48368;53.406;6.214;2022-10-31T09:10:22;12.50;99.90
62339;DHT22;48368;53.406;6.214;2022-10-31T09:12:56;12.50;99.90
62339;DHT22;48368;53.406;6.214;2022-10-31T09:15:22;12.60;99.90
62339;DHT22;48368;53.406;6.214;2022-10-31T09:17:49;12.60;99.90
62339;DHT22;48368;53.406;6.214;2022-10-31T09:20:14;12.80;99.90
62339;DHT22;48368;53.406;6.214;2022-10-31T09:22:40;12.80;99.90
62339;DHT22;48368;53.406;6.214;2022-10-31T09:25:06;12.80;99.90
62339;DHT22;48368;53.406;6.214;2022-10-31T09:27:32;13.00;99.90
62339;DHT22;48368;53.406;6.214;2022-10-31T09:29:58;13.10;99.90
62339;DHT22;48368;53.406;6.214;2022-10-31T09:32:23;13.20;99.90
62339;DHT22;48368;53.406;6.214;2022-10-31T09:34:49;13.30;99.90
62339;DHT22;48368;53.406;6.214;2022-10-31T09:37:14;13.40;99.90
62339;DHT22;48368;53.406;6.214;2022-10-31T09:39:40;13.50;99.90
62339;DHT22;48368;53.406;6.214;2022-10-31T09:42:33;13.50;99.90
62339;DHT22;48368;53.406;6.214;2022-10-31T09:45:07;13.80;99.90
62339;DHT22;48368;53.406;6.214;2022-10-31T09:47:52;13.80;99.90
62339;DHT22;48368;53.406;6.214;2022-10-31T09:50:26;14.00;99.90
62339;DHT22;48368;53.406;6.214;2022-10-31T09:53:03;14.10;99.90
62339;DHT22;48368;53.406;6.214;2022-10-31T09:55:40;14.20;99.90
62339;DHT22;48368;53.406;6.214;2022-10-31T09:58:16;14.20;99.90
62339;DHT22;48368;53.406;6.214;2022-10-31T10:00:45;14.40;99.90
62339;DHT22;48368;53.406;6.214;2022-10-31T10:06:09;14.40;99.90
62339;DHT22;48368;53.406;6.214;2022-10-31T10:08:37;14.50;99.90
62339;DHT22;48368;53.406;6.214;2022-10-31T10:11:24;14.60;99.90
62339;DHT22;48368;53.406;6.214;2022-10-31T10:14:19;14.80;99.90
62339;DHT22;48368;53.406;6.214;2022-10-31T10:30:22;14.90;99.90
62339;DHT22;48368;53.406;6.214;2022-10-31T10:32:56;14.80;99.90
62339;DHT22;48368;53.406;6.214;2022-10-31T10:35:36;14.70;99.90
62339;DHT22;48368;53.406;6.214;2022-10-31T10:39:11;14.70;99.90
62339;DHT22;48368;53.406;6.214;2022-10-31T10:41:14;14.70;99.90
62339;DHT22;48368;53.406;6.214;2022-10-31T10:43:49;14.70;99.90
62339;DHT22;48368;53.406;6.214;2022-10-31T10:46:29;14.90;99.90
62339;DHT22;48368;53.406;6.214;2022-10-31T10:49:19;15.00;99.90
62339;DHT22;48368;53.406;6.214;2022-10-31T11:00:19;15.60;99.90
62339;DHT22;48368;53.406;6.214;2022-10-31T11:02:46;15.70;99.90
62339;DHT22;48368;53.406;6.214;2022-10-31T11:05:23;15.60;99.90
62339;DHT22;48368;53.406;6.214;2022-10-31T11:07:52;15.50;99.90
62339;DHT22;48368;53.406;6.214;2022-10-31T11:10:18;15.60;99.90
62339;DHT22;48368;53.406;6.214;2022-10-31T11:12:56;15.60;99.90
62339;DHT22;48368;53.406;6.214;2022-10-31T11:15:24;15.60;99.90
62339;DHT22;48368;53.406;6.214;2022-10-31T11:17:56;15.70;99.90
62339;DHT22;48368;53.406;6.214;2022-10-31T11:20:34;15.80;99.90
62339;DHT22;48368;53.406;6.214;2022-10-31T11:23:16;15.90;99.90
62339;DHT22;48368;53.406;6.214;2022-10-31T11:28:18;16.20;99.90
62339;DHT22;48368;53.406;6.214;2022-10-31T11:31:12;16.00;99.90
62339;DHT22;48368;53.406;6.214;2022-10-31T11:33:58;16.10;99.90
62339;DHT22;48368;53.406;6.214;2022-10-31T11:36:27;16.10;99.90
62339;DHT22;48368;53.406;6.214;2022-10-31T11:38:54;16.20;99.90
62339;DHT22;48368;53.406;6.214;2022-10-31T11:41:35;16.30;99.90
62339;DHT22;48368;53.406;6.214;2022-10-31T11:44:12;16.30;99.90
62339;DHT22;48368;53.406;6.214;2022-10-31T11:46:41;16.10;99.90
62339;DHT22;48368;53.406;6.214;2022-10-31T11:51:54;16.00;99.90
62339;DHT22;48368;53.406;6.214;2022-10-31T11:54:25;15.90;99.90
62339;DHT22;48368;53.406;6.214;2022-10-31T11:56:51;15.90;99.90
62339;DHT22;48368;53.406;6.214;2022-10-31T11:59:37;15.80;99.90
62339;DHT22;48368;53.406;6.214;2022-10-31T12:02:18;15.90;99.90
62339;DHT22;48368;53.406;6.214;2022-10-31T12:04:49;15.90;99.90
62339;DHT22;48368;53.406;6.214;2022-10-31T12:07:16;15.90;99.90
62339;DHT22;48368;53.406;6.214;2022-10-31T12:09:41;15.90;99.90
62339;DHT22;48368;53.406;6.214;2022-10-31T12:21:08;16.00;99.90
62339;DHT22;48368;53.406;6.214;2022-10-31T12:26:30;16.10;99.90
62339;DHT22;48368;53.406;6.214;2022-10-31T12:37:21;15.90;99.90
62339;DHT22;48368;53.406;6.214;2022-10-31T12:45:56;15.90;99.90
62339;DHT22;48368;53.406;6.214;2022-10-31T12:51:21;15.80;99.90
62339;DHT22;48368;53.406;6.214;2022-10-31T13:01:55;15.60;99.90
62339;DHT22;48368;53.406;6.214;2022-10-31T13:04:56;15.60;99.90
62339;DHT22;48368;53.406;6.214;2022-10-31T13:07:29;15.60;99.90
62339;DHT22;48368;53.406;6.214;2022-10-31T13:10:08;15.60;99.90
62339;DHT22;48368;53.406;6.214;2022-10-31T13:12:41;15.60;99.90
62339;DHT22;48368;53.406;6.214;2022-10-31T13:15:32;15.50;99.90
62339;DHT22;48368;53.406;6.214;2022-10-31T13:18:09;15.40;99.90
62339;DHT22;48368;53.406;6.214;2022-10-31T13:20:43;15.40;99.90
62339;DHT22;48368;53.406;6.214;2022-10-31T13:23:29;15.50;99.90
62339;DHT22;48368;53.406;6.214;2022-10-31T15:21:06;15.10;99.90
62339;DHT22;48368;53.406;6.214;2022-10-31T15:30:28;15.00;99.90
62339;DHT22;48368;53.406;6.214;2022-10-31T15:56:00;14.80;99.90
62339;DHT22;48368;53.406;6.214;2022-10-31T15:58:27;14.80;99.90
62339;DHT22;48368;53.406;6.214;2022-10-31T16:01:19;14.70;99.90
62339;DHT22;48368;53.406;6.214;2022-10-31T16:04:01;14.60;99.90
62339;DHT22;48368;53.406;6.214;2022-10-31T16:06:27;14.60;99.90
62339;DHT22;48368;53.406;6.214;2022-10-31T16:08:53;14.50;99.90
62339;DHT22;48368;53.406;6.214;2022-10-31T16:11:32;14.50;99.90
62339;DHT22;48368;53.406;6.214;2022-10-31T16:14:19;14.50;99.90
62339;DHT22;48368;53.406;6.214;2022-10-31T16:16:49;14.50;99.90
62339;DHT22;48368;53.406;6.214;2022-10-31T16:19:24;14.50;99.90
62339;DHT22;48368;53.406;6.214;2022-10-31T16:22:11;14.40;99.90
62339;DHT22;48368;53.406;6.214;2022-10-31T16:24:49;14.40;99.90
62339;DHT22;48368;53.406;6.214;2022-10-31T16:27:19;14.40;99.90
62339;DHT22;48368;53.406;6.214;2022-10-31T16:29:48;14.40;99.90
62339;DHT22;48368;53.406;6.214;2022-10-31T16:32:35;14.40;99.90
62339;DHT22;48368;53.406;6.214;2022-10-31T16:37:40;14.40;99.90
62339;DHT22;48368;53.406;6.214;2022-10-31T16:40:06;14.30;99.90
62339;DHT22;48368;53.406;6.214;2022-10-31T16:42:32;14.30;99.90
62339;DHT22;48368;53.406;6.214;2022-10-31T16:44:58;14.30;99.90
62339;DHT22;48368;53.406;6.214;2022-10-31T16:47:24;14.20;99.90
62339;DHT22;48368;53.406;6.214;2022-10-31T16:49:50;14.20;99.90
62339;DHT22;48368;53.406;6.214;2022-10-31T16:52:16;14.20;99.90
62339;DHT22;48368;53.406;6.214;2022-10-31T16:54:42;14.20;99.90
62339;DHT22;48368;53.406;6.214;2022-10-31T16:57:14;14.30;99.90
62339;DHT22;48368;53.406;6.214;2022-10-31T16:59:41;14.30;99.90
62339;DHT22;48368;53.406;6.214;2022-10-31T17:02:13;14.20;99.90
62339;DHT22;48368;53.406;6.214;2022-10-31T17:04:40;14.10;99.90
62339;DHT22;48368;53.406;6.214;2022-10-31T17:07:05;14.20;99.90
62339;DHT22;48368;53.406;6.214;2022-10-31T17:09:31;14.10;99.90
62339;DHT22;48368;53.406;6.214;2022-10-31T17:11:56;14.00;99.90
62339;DHT22;48368;53.406;6.214;2022-10-31T17:14:23;14.00;99.90
62339;DHT22;48368;53.406;6.214;2022-10-31T17:16:48;14.00;99.90
62339;DHT22;48368;53.406;6.214;2022-10-31T17:19:14;14.00;99.90
62339;DHT22;48368;53.406;6.214;2022-10-31T17:21:40;14.00;99.90
62339;DHT22;48368;53.406;6.214;2022-10-31T17:24:07;14.10;99.90
62339;DHT22;48368;53.406;6.214;2022-10-31T17:26:33;14.00;99.90
62339;DHT22;48368;53.406;6.214;2022-10-31T17:28:59;14.00;99.90
62339;DHT22;48368;53.406;6.214;2022-10-31T17:31:29;14.00;99.90
62339;DHT22;48368;53.406;6.214;2022-10-31T17:33:57;14.10;99.90
62339;DHT22;48368;53.406;6.214;2022-10-31T17:36:23;14.00;99.90
62339;DHT22;48368;53.406;6.214;2022-10-31T17:38:49;14.00;99.90
62339;DHT22;48368;53.406;6.214;2022-10-31T17:41:15;14.00;99.90
62339;DHT22;48368;53.406;6.214;2022-10-31T17:43:40;14.10;99.90
62339;DHT22;48368;53.406;6.214;2022-10-31T17:46:06;14.00;99.90
62339;DHT22;48368;53.406;6.214;2022-10-31T17:48:33;14.00;99.90
62339;DHT22;48368;53.406;6.214;2022-10-31T17:51:01;14.00;99.90
62339;DHT22;48368;53.406;6.214;2022-10-31T17:53:31;14.00;99.90
62339;DHT22;48368;53.406;6.214;2022-10-31T17:56:02;14.00;99.90
62339;DHT22;48368;53.406;6.214;2022-10-31T17:58:29;14.00;99.90
62339;DHT22;48368;53.406;6.214;2022-10-31T18:00:55;14.00;99.90
62339;DHT22;48368;53.406;6.214;2022-10-31T18:03:21;13.90;99.90
62339;DHT22;48368;53.406;6.214;2022-10-31T18:05:57;13.90;99.90
62339;DHT22;48368;53.406;6.214;2022-10-31T18:08:28;13.90;99.90
62339;DHT22;48368;53.406;6.214;2022-10-31T18:10:54;13.90;99.90
62339;DHT22;48368;53.406;6.214;2022-10-31T18:13:21;13.90;99.90
62339;DHT22;48368;53.406;6.214;2022-10-31T18:15:47;13.90;99.90
62339;DHT22;48368;53.406;6.214;2022-10-31T18:18:13;13.90;99.90
62339;DHT22;48368;53.406;6.214;2022-10-31T18:20:39;13.80;99.90
62339;DHT22;48368;53.406;6.214;2022-10-31T18:23:05;13.90;99.90
62339;DHT22;48368;53.406;6.214;2022-10-31T18:25:31;13.90;99.90
62339;DHT22;48368;53.406;6.214;2022-10-31T18:27:57;13.90;99.90
62339;DHT22;48368;53.406;6.214;2022-10-31T18:30:22;13.90;99.90
62339;DHT22;48368;53.406;6.214;2022-10-31T18:32:51;13.90;99.90
62339;DHT22;48368;53.406;6.214;2022-10-31T18:35:17;14.00;99.90
62339;DHT22;48368;53.406;6.214;2022-10-31T18:37:43;13.90;99.90
62339;DHT22;48368;53.406;6.214;2022-10-31T18:40:09;13.90;99.90
62339;DHT22;48368;53.406;6.214;2022-10-31T18:42:34;13.90;99.90
62339;DHT22;48368;53.406;6.214;2022-10-31T18:45:02;13.90;99.90
62339;DHT22;48368;53.406;6.214;2022-10-31T18:47:28;14.00;99.90
62339;DHT22;48368;53.406;6.214;2022-10-31T18:49:53;13.90;99.90
62339;DHT22;48368;53.406;6.214;2022-10-31T18:52:19;13.90;99.90
62339;DHT22;48368;53.406;6.214;2022-10-31T18:54:44;13.90;99.90
62339;DHT22;48368;53.406;6.214;2022-10-31T18:57:10;13.90;99.90
62339;DHT22;48368;53.406;6.214;2022-10-31T18:59:36;13.80;99.90
62339;DHT22;48368;53.406;6.214;2022-10-31T19:02:01;13.90;99.90
62339;DHT22;48368;53.406;6.214;2022-10-31T19:04:27;13.90;99.90
62339;DHT22;48368;53.406;6.214;2022-10-31T19:06:54;13.90;99.90
62339;DHT22;48368;53.406;6.214;2022-10-31T19:09:20;13.80;99.90
62339;DHT22;48368;53.406;6.214;2022-10-31T19:11:45;13.90;99.90
62339;DHT22;48368;53.406;6.214;2022-10-31T19:14:12;13.90;99.90
62339;DHT22;48368;53.406;6.214;2022-10-31T19:16:39;13.90;99.90
62339;DHT22;48368;53.406;6.214;2022-10-31T19:19:05;13.90;99.90
62339;DHT22;48368;53.406;6.214;2022-10-31T19:21:31;13.90;99.90
62339;DHT22;48368;53.406;6.214;2022-10-31T19:23:58;13.90;99.90
62339;DHT22;48368;53.406;6.214;2022-10-31T19:26:24;13.90;99.90
62339;DHT22;48368;53.406;6.214;2022-10-31T19:28:51;13.90;99.90
62339;DHT22;48368;53.406;6.214;2022-10-31T19:31:16;13.90;99.90
62339;DHT22;48368;53.406;6.214;2022-10-31T19:33:44;13.80;99.90
62339;DHT22;48368;53.406;6.214;2022-10-31T19:36:12;13.90;99.90
62339;DHT22;48368;53.406;6.214;2022-10-31T19:38:40;13.80;99.90
62339;DHT22;48368;53.406;6.214;2022-10-31T19:41:15;13.90;99.90
62339;DHT22;48368;53.406;6.214;2022-10-31T19:43:41;13.80;99.90
62339;DHT22;48368;53.406;6.214;2022-10-31T19:46:09;13.80;99.90
62339;DHT22;48368;53.406;6.214;2022-10-31T19:48:35;13.80;99.90
62339;DHT22;48368;53.406;6.214;2022-10-31T19:51:07;13.80;99.90
62339;DHT22;48368;53.406;6.214;2022-10-31T19:53:33;13.80;99.90
62339;DHT22;48368;53.406;6.214;2022-10-31T19:55:59;13.90;99.90